Time;durP1;ratioP1;P1;durP2;ratioP2;P2;SDS_P1;SDS_P2;PMS_P1;PMS_P2;Temp;Humidity;BMP_temperature;BMP_pressure;BME280_temperature;BME280_humidity;BME280_pressure;Samples;Min_cycle;Max_cycle;Signal;HPM_P1;HPM_P2
2021/04/10 00:01:29;;;;;;;6.32;3.08;;;;;;;13.03;31.53;101674.50;4975063;28;20027;-78
2021/04/10 00:03:55;;;;;;;15.05;3.13;;;;;;;13.09;31.39;101677.97;4975030;28;20022;-78
2021/04/10 00:06:21;;;;;;;6.20;2.15;;;;;;;13.03;31.47;101686.28;4976338;28;20042;-79
2021/04/10 00:08:46;;;;;;;5.18;2.90;;;;;;;13.09;31.32;101691.69;4976215;28;20027;-78
2021/04/10 00:11:12;;;;;;;10.07;3.28;;;;;;;13.08;31.31;101685.38;4976283;28;20023;-77
2021/04/10 00:13:38;;;;;;;7.95;4.03;;;;;;;13.12;31.27;101693.81;4975853;28;20033;-78
2021/04/10 00:16:05;;;;;;;7.65;3.92;;;;;;;13.09;30.98;101692.50;4976173;28;20478;-80
2021/04/10 00:18:30;;;;;;;10.45;4.85;;;;;;;13.08;31.36;101690.06;4974761;28;20118;-79
2021/04/10 00:20:56;;;;;;;9.20;4.28;;;;;;;13.06;31.22;101695.84;4976048;28;20092;-78
2021/04/10 00:23:22;;;;;;;8.60;3.63;;;;;;;13.08;31.30;101690.88;4976053;28;20114;-78
2021/04/10 00:25:47;;;;;;;9.25;2.75;;;;;;;13.06;31.25;101685.66;4975969;28;20034;-81
2021/04/10 00:28:13;;;;;;;7.22;3.20;;;;;;;13.04;31.30;101684.38;4974222;28;20030;-79
2021/04/10 00:30:39;;;;;;;6.07;2.65;;;;;;;13.05;31.48;101685.97;4974163;28;20469;-78
2021/04/10 00:33:04;;;;;;;9.30;2.72;;;;;;;13.01;31.40;101685.00;4975899;28;20050;-81
2021/04/10 00:35:30;;;;;;;6.57;2.25;;;;;;;13.06;31.25;101684.88;4975379;28;20524;-77
2021/04/10 00:37:57;;;;;;;4.57;2.40;;;;;;;13.04;31.37;101684.38;4975643;28;20553;-78
2021/04/10 00:40:23;;;;;;;4.03;2.05;;;;;;;13.07;30.99;101689.22;4974462;28;20027;-78
2021/04/10 00:42:49;;;;;;;4.78;2.70;;;;;;;13.01;31.34;101685.00;4975657;28;20133;-77
2021/04/10 00:45:14;;;;;;;6.30;3.25;;;;;;;12.93;31.50;101681.03;4975603;28;20569;-77
2021/04/10 00:47:40;;;;;;;6.03;2.40;;;;;;;12.99;31.35;101685.28;4975246;28;20031;-80
2021/04/10 00:50:06;;;;;;;6.50;3.13;;;;;;;12.95;31.40;101678.78;4975490;28;20023;-78
2021/04/10 00:52:34;;;;;;;5.80;2.80;;;;;;;12.64;31.90;101675.03;4975442;28;20034;-80
2021/04/10 00:55:00;;;;;;;6.65;2.72;;;;;;;12.65;31.87;101682.97;4975398;28;20394;-79
2021/04/10 00:57:25;;;;;;;10.02;2.70;;;;;;;12.67;31.70;101677.97;4975279;28;20478;-78
2021/04/10 00:59:51;;;;;;;8.70;4.13;;;;;;;12.67;31.86;101691.69;4974945;28;20082;-78
2021/04/10 01:02:17;;;;;;;8.23;2.78;;;;;;;12.75;31.85;101679.19;4974012;28;20448;-77
2021/04/10 01:04:43;;;;;;;5.18;2.75;;;;;;;12.82;31.70;101673.31;4975282;28;20047;-78
2021/04/10 01:07:09;;;;;;;6.32;2.55;;;;;;;12.78;31.83;101690.38;4975244;28;20477;-78
2021/04/10 01:09:35;;;;;;;7.45;3.40;;;;;;;12.72;31.83;101690.78;4975050;28;20062;-77
2021/04/10 01:12:18;;;;;;;8.02;3.28;;;;;;;12.69;32.10;101680.41;4974971;28;20022;-77
2021/04/10 01:15:04;;;;;;;10.05;3.00;;;;;;;12.68;31.83;101685.06;4975032;28;20384;-78
2021/04/10 01:17:49;;;;;;;6.10;2.90;;;;;;;12.67;31.85;101683.47;4973793;28;20027;-78
2021/04/10 01:20:37;;;;;;;8.68;3.33;;;;;;;12.65;31.98;101682.97;4975053;28;20035;-80
2021/04/10 01:23:12;;;;;;;7.45;3.55;;;;;;;12.66;31.96;101690.06;4974616;28;20027;-78
2021/04/10 01:25:51;;;;;;;10.38;4.70;;;;;;;12.61;32.14;101684.66;4973676;28;20058;-78
2021/04/10 01:28:42;;;;;;;13.23;4.40;;;;;;;12.52;32.10;101686.50;4974830;28;20085;-77
2021/04/10 01:31:12;;;;;;;7.68;4.22;;;;;;;12.55;31.96;101683.16;4957407;28;20043;-77
2021/04/10 01:33:42;;;;;;;7.07;4.30;;;;;;;12.47;32.16;101683.88;4973512;28;20023;-78
2021/04/10 01:36:12;;;;;;;8.50;4.60;;;;;;;12.44;32.38;101687.19;4973588;28;20506;-80
2021/04/10 01:38:40;;;;;;;;;;;;;;;12.27;32.69;101681.50;4974990;28;20041;-77
2021/04/10 01:41:08;;;;;;;10.23;4.60;;;;;;;12.37;32.46;101681.28;4974729;28;20391;-77
2021/04/10 01:43:36;;;;;;;9.02;3.70;;;;;;;12.45;32.24;101669.63;4957182;28;20030;-77
2021/04/10 01:46:02;;;;;;;10.15;4.70;;;;;;;12.45;32.25;101675.09;4973008;28;20453;-77
2021/04/10 01:48:30;;;;;;;17.27;5.00;;;;;;;12.33;32.45;101681.09;4974381;28;20031;-78
2021/04/10 01:50:59;;;;;;;10.95;4.80;;;;;;;12.41;32.39;101676.84;4974450;28;20030;-77
2021/04/10 01:53:27;;;;;;;6.60;3.92;;;;;;;12.30;32.32;101673.47;4974433;28;20027;-80
2021/04/10 01:55:53;;;;;;;8.40;4.30;;;;;;;12.20;32.61;101669.00;4973125;28;20074;-78
2021/04/10 01:58:19;;;;;;;13.48;4.63;;;;;;;12.28;32.65;101672.16;4974529;28;20090;-80
2021/04/10 02:00:46;;;;;;;11.93;4.38;;;;;;;12.20;32.76;101670.91;4974048;28;20062;-77
2021/04/10 02:03:18;;;;;;;17.02;5.32;;;;;;;12.25;32.85;101670.03;4972879;28;20038;-77
2021/04/10 02:05:44;;;;;;;7.07;3.70;;;;;;;12.31;32.59;101672.34;4974252;28;20031;-77
2021/04/10 02:08:13;;;;;;;7.50;3.75;;;;;;;12.30;32.72;101675.38;4973721;28;20023;-77
2021/04/10 02:10:40;;;;;;;8.00;3.77;;;;;;;12.26;32.63;101675.19;4974222;28;20031;-78
2021/04/10 02:13:07;;;;;;;10.63;3.58;;;;;;;12.32;32.39;101675.91;4974058;28;20110;-77
2021/04/10 02:15:34;;;;;;;7.63;3.70;;;;;;;12.26;32.67;101675.19;4973983;28;20059;-77
2021/04/10 02:18:00;;;;;;;8.82;4.00;;;;;;;12.24;32.81;101680.13;4974183;28;20027;-78
2021/04/10 02:20:25;;;;;;;10.50;3.60;;;;;;;12.23;32.50;101679.34;4973898;28;20022;-77
2021/04/10 02:22:53;;;;;;;5.75;3.63;;;;;;;12.17;32.82;101675.06;4974089;28;20027;-78
2021/04/10 02:25:20;;;;;;;9.68;3.20;;;;;;;12.08;32.90;101676.03;4971888;28;20543;-77
2021/04/10 02:27:46;;;;;;;7.15;3.70;;;;;;;12.09;32.69;101673.03;4973813;28;20019;-77
2021/04/10 02:30:14;;;;;;;9.55;3.75;;;;;;;12.10;32.90;101669.19;4973771;28;20106;-77
2021/04/10 02:32:57;;;;;;;8.63;3.92;;;;;;;12.10;32.82;101669.19;4973632;28;20501;-78
2021/04/10 02:35:34;;;;;;;6.18;3.58;;;;;;;12.10;32.85;101674.66;4973689;28;20541;-81
2021/04/10 02:38:00;;;;;;;10.77;3.10;;;;;;;12.10;32.85;101669.19;4973795;28;20085;-77
2021/04/10 02:40:31;;;;;;;11.90;3.92;;;;;;;12.09;32.99;101670.28;4966592;28;20023;-80
2021/04/10 02:42:58;;;;;;;7.70;3.72;;;;;;;12.12;32.97;101666.94;4937253;28;20061;-77
2021/04/10 02:45:26;;;;;;;10.03;4.70;;;;;;;12.13;32.94;101671.31;4954428;28;20042;-77
2021/04/10 02:47:57;;;;;;;7.97;3.95;;;;;;;12.08;33.14;101673.31;4954089;28;20026;-81
2021/04/10 02:50:23;;;;;;;11.77;4.60;;;;;;;12.08;33.03;101671.38;4954121;28;20038;-80
2021/04/10 02:52:53;;;;;;;10.30;4.13;;;;;;;12.09;32.99;101667.56;4954300;28;20047;-77
2021/04/10 02:55:43;;;;;;;8.27;3.80;;;;;;;11.99;33.24;101667.72;4953918;28;20060;-78
2021/04/10 02:58:11;;;;;;;7.40;4.10;;;;;;;12.03;33.08;101668.75;4954130;28;20039;-80
2021/04/10 03:00:42;;;;;;;9.95;4.03;;;;;;;12.07;33.00;101668.94;4954157;28;20047;-78
2021/04/10 03:03:11;;;;;;;9.10;5.07;;;;;;;12.07;32.93;101674.44;4954372;28;20031;-77
2021/04/10 03:05:38;;;;;;;8.90;4.18;;;;;;;12.07;33.04;101661.53;4954215;28;20474;-77
2021/04/10 03:08:06;;;;;;;7.72;3.72;;;;;;;12.02;33.02;101664.38;4954168;28;20078;-78
2021/04/10 03:10:33;;;;;;;9.18;3.75;;;;;;;12.02;32.89;101666.31;4954231;28;20155;-77
2021/04/10 03:13:00;;;;;;;11.25;4.47;;;;;;;12.01;33.09;101665.47;4954127;28;20355;-77
2021/04/10 03:15:26;;;;;;;15.43;4.70;;;;;;;11.99;33.05;101664.97;4954127;28;20027;-77
2021/04/10 03:17:52;;;;;;;9.33;4.60;;;;;;;11.95;33.13;101669.44;4954227;28;20043;-81
2021/04/10 03:20:21;;;;;;;9.95;4.57;;;;;;;11.88;33.09;101671.75;4953704;29;20035;-77
2021/04/10 03:22:49;;;;;;;11.50;4.35;;;;;;;11.81;33.09;101672.13;4954171;28;20043;-79
2021/04/10 03:25:16;;;;;;;12.60;5.35;;;;;;;11.82;33.16;101660.06;4937057;29;20032;-77
2021/04/10 03:27:43;;;;;;;10.30;4.73;;;;;;;11.82;33.17;101659.25;4953992;28;20036;-80
2021/04/10 03:30:11;;;;;;;10.98;5.10;;;;;;;11.81;33.20;101660.34;4952692;29;20385;-77
2021/04/10 03:32:39;;;;;;;9.98;4.63;;;;;;;11.80;33.14;101664.19;4953959;28;20063;-80
2021/04/10 03:35:05;;;;;;;7.30;3.50;;;;;;;11.78;33.35;101661.72;4953982;28;20089;-80
2021/04/10 03:37:31;;;;;;;13.48;4.00;;;;;;;11.76;33.13;101654.91;4957307;28;20114;-77
2021/04/10 03:40:00;;;;;;;12.25;4.63;;;;;;;11.69;33.31;101663.50;4956278;29;20474;-77
2021/04/10 03:42:37;;;;;;;11.52;3.95;;;;;;;11.62;33.43;101652.94;4956226;29;20043;-78
2021/04/10 03:45:05;;;;;;;11.65;3.83;;;;;;;11.68;33.45;101661.88;4957489;28;20086;-78
2021/04/10 03:47:30;;;;;;;9.32;3.58;;;;;;;11.71;33.55;101652.25;4957355;28;20039;-78
2021/04/10 03:49:56;;;;;;;9.95;4.38;;;;;;;11.74;33.39;101652.47;4957299;28;20097;-77
2021/04/10 03:52:22;;;;;;;12.82;4.15;;;;;;;11.72;33.69;101651.16;4957320;28;20031;-77
2021/04/10 03:54:48;;;;;;;9.35;4.32;;;;;;;11.73;33.43;101656.34;4957146;28;20032;-78
2021/04/10 03:57:13;;;;;;;10.00;4.78;;;;;;;11.72;33.62;101656.66;4957192;28;20428;-77
2021/04/10 03:59:39;;;;;;;9.20;4.65;;;;;;;11.73;33.80;101658.25;4956870;28;20059;-77
2021/04/10 04:02:04;;;;;;;10.38;3.95;;;;;;;11.72;33.77;101651.16;4957184;28;20043;-78
2021/04/10 04:04:30;;;;;;;41.60;6.63;;;;;;;11.68;33.76;101659.16;4957203;28;20475;-77
2021/04/10 04:06:56;;;;;;;13.77;4.78;;;;;;;11.68;33.70;101659.97;4957056;28;20070;-77
2021/04/10 04:09:21;;;;;;;20.25;6.10;;;;;;;11.66;33.75;101664.94;4956936;28;20042;-77
2021/04/10 04:11:47;;;;;;;8.10;4.65;;;;;;;11.67;33.83;101663.81;4956869;28;20106;-77
2021/04/10 04:14:12;;;;;;;13.80;5.32;;;;;;;11.66;33.74;101664.94;4956887;28;20034;-80
2021/04/10 04:16:38;;;;;;;10.32;4.68;;;;;;;11.64;33.61;101669.09;4956902;28;20035;-77
2021/04/10 04:19:04;;;;;;;11.27;5.00;;;;;;;11.62;33.87;101663.88;4956747;28;20035;-77
2021/04/10 04:21:29;;;;;;;17.83;5.40;;;;;;;11.60;33.67;101666.13;4956795;28;20062;-78
2021/04/10 04:23:55;;;;;;;9.00;4.32;;;;;;;11.56;33.77;101659.63;4956638;28;20441;-77
2021/04/10 04:26:21;;;;;;;17.13;6.20;;;;;;;11.48;34.03;101652.06;4956640;28;20066;-78
2021/04/10 04:28:46;;;;;;;10.20;4.80;;;;;;;11.50;33.91;101660.81;4956539;29;20077;-77
2021/04/10 04:31:12;;;;;;;8.75;4.38;;;;;;;11.50;33.93;101663.53;4956633;29;20091;-77
2021/04/10 04:33:38;;;;;;;9.88;4.43;;;;;;;11.49;33.94;101669.31;4956639;29;20102;-77
2021/04/10 04:36:04;;;;;;;17.30;6.80;;;;;;;11.46;33.99;101667.97;4955210;28;20031;-78
2021/04/10 04:38:30;;;;;;;7.85;4.53;;;;;;;11.45;33.70;101669.06;4956492;28;20080;-77
2021/04/10 04:40:55;;;;;;;9.13;3.95;;;;;;;11.38;33.84;101671.38;4955197;28;20023;-79
2021/04/10 04:43:21;;;;;;;10.82;4.68;;;;;;;11.32;33.96;101667.06;4956042;28;20047;-80
2021/04/10 04:45:47;;;;;;;9.70;4.47;;;;;;;11.32;34.21;101669.81;4956390;28;20385;-77
2021/04/10 04:48:12;;;;;;;9.85;3.75;;;;;;;11.38;34.00;101668.63;4955453;28;20027;-77
2021/04/10 04:50:38;;;;;;;11.13;4.10;;;;;;;11.38;34.01;101665.91;4956216;29;20106;-77
2021/04/10 04:53:04;;;;;;;8.85;3.75;;;;;;;11.31;34.16;101671.72;4956238;29;20413;-78
2021/04/10 04:55:29;;;;;;;8.50;4.10;;;;;;;11.36;34.09;101666.19;4956225;28;20031;-77
2021/04/10 04:57:55;;;;;;;6.85;3.53;;;;;;;11.35;33.88;101669.25;4956278;28;20385;-77
2021/04/10 05:00:21;;;;;;;8.07;3.47;;;;;;;11.33;34.10;101677.72;4955735;28;20418;-80
2021/04/10 05:02:47;;;;;;;8.63;3.88;;;;;;;11.29;33.84;101675.88;4956076;28;20050;-77
2021/04/10 05:05:13;;;;;;;12.33;4.37;;;;;;;11.23;34.30;101671.59;4955856;28;20478;-80
2021/04/10 05:07:38;;;;;;;8.05;3.78;;;;;;;11.21;34.35;101673.81;4955773;28;20039;-77
2021/04/10 05:10:04;;;;;;;10.25;5.05;;;;;;;11.20;34.22;101681.19;4955858;28;20031;-77
2021/04/10 05:12:30;;;;;;;9.45;3.92;;;;;;;11.19;34.21;101681.50;4955472;29;20035;-77
2021/04/10 05:14:56;;;;;;;7.50;4.28;;;;;;;11.17;34.41;101687.25;4954367;29;20031;-77
2021/04/10 05:17:21;;;;;;;12.13;4.85;;;;;;;11.15;34.12;101683.19;4955720;28;20085;-77
2021/04/10 05:19:47;;;;;;;12.40;4.75;;;;;;;11.11;34.43;101681.06;4955782;28;20054;-79
2021/04/10 05:22:12;;;;;;;13.85;5.07;;;;;;;11.13;34.32;101682.66;4955744;28;20031;-77
2021/04/10 05:24:38;;;;;;;12.90;5.80;;;;;;;11.15;34.17;101685.91;4955661;29;20032;-77
2021/04/10 05:27:04;;;;;;;10.32;4.55;;;;;;;11.15;34.45;101686.72;4955502;29;20181;-77
2021/04/10 05:29:29;;;;;;;18.00;6.45;;;;;;;11.09;34.52;101688.72;4955368;28;20367;-77
2021/04/10 05:31:55;;;;;;;40.60;8.95;;;;;;;11.14;34.37;101692.50;4955382;28;20036;-77
2021/04/10 05:34:21;;;;;;;20.77;7.43;;;;;;;11.19;34.55;101692.44;4955475;28;20106;-77
2021/04/10 05:36:46;;;;;;;12.03;6.33;;;;;;;11.23;34.53;101691.53;4955362;29;20106;-79
2021/04/10 05:39:12;;;;;;;8.70;5.70;;;;;;;11.30;34.23;101691.19;4955285;28;20031;-77
2021/04/10 05:41:37;;;;;;;44.92;10.15;;;;;;;11.26;34.39;101701.06;4955392;29;20110;-77
2021/04/10 05:44:04;;;;;;;9.68;4.97;;;;;;;11.28;34.41;101696.16;4953922;28;20067;-78
2021/04/10 05:46:29;;;;;;;10.30;4.80;;;;;;;11.35;34.21;101689.19;4955176;28;20528;-77
2021/04/10 05:48:55;;;;;;;9.15;4.90;;;;;;;11.29;34.35;101689.56;4955103;28;20067;-77
2021/04/10 05:51:21;;;;;;;18.27;4.90;;;;;;;11.21;34.60;101687.50;4955117;29;20174;-77
2021/04/10 05:53:46;;;;;;;9.13;4.30;;;;;;;11.22;34.57;101686.38;4954975;28;20082;-80
2021/04/10 05:56:12;;;;;;;8.55;3.70;;;;;;;11.24;34.37;101684.16;4954003;28;20461;-79
2021/04/10 05:58:39;;;;;;;15.13;4.00;;;;;;;11.20;34.41;101689.41;4954907;28;20039;-81
2021/04/10 06:01:05;;;;;;;21.10;4.87;;;;;;;11.07;34.84;101684.66;4953554;28;20066;-77
2021/04/10 06:03:30;;;;;;;19.70;5.83;;;;;;;11.22;34.33;101681.72;4953794;28;20035;-77
2021/04/10 06:05:56;;;;;;;14.33;4.30;;;;;;;11.21;34.54;101684.75;4954688;28;20023;-77
2021/04/10 06:08:22;;;;;;;8.10;3.77;;;;;;;11.30;34.31;101693.91;4953465;29;20027;-79
2021/04/10 06:10:47;;;;;;;12.23;3.70;;;;;;;11.23;34.60;101699.75;4954876;28;20023;-77
2021/04/10 06:13:14;;;;;;;28.52;5.90;;;;;;;11.28;34.79;101698.88;4954843;28;20098;-77
2021/04/10 06:15:40;;;;;;;43.07;6.30;;;;;;;11.20;34.54;101694.88;4954827;28;20023;-79
2021/04/10 06:18:06;;;;;;;14.65;3.25;;;;;;;11.36;34.51;101698.22;4954499;28;20508;-77
2021/04/10 06:20:32;;;;;;;33.53;7.63;;;;;;;11.26;34.71;101693.72;4954715;28;20049;-77
2021/04/10 06:22:58;;;;;;;8.98;3.53;;;;;;;11.33;34.67;101694.13;4954655;29;20526;-75
2021/04/10 06:25:24;;;;;;;53.97;9.93;;;;;;;11.44;34.52;101696.75;4954719;28;20033;-75
2021/04/10 06:27:49;;;;;;;33.30;6.53;;;;;;;11.57;34.54;101699.56;4954574;28;20047;-75
2021/04/10 06:30:15;;;;;;;22.07;5.13;;;;;;;11.50;34.66;101699.13;4954590;28;20054;-74
2021/04/10 06:32:41;;;;;;;7.93;3.83;;;;;;;11.50;34.72;101701.84;4954715;28;20035;-74
2021/04/10 06:35:07;;;;;;;7.47;3.22;;;;;;;11.75;34.45;101700.66;4954515;28;20023;-75
2021/04/10 06:37:35;;;;;;;9.57;3.13;;;;;;;11.87;34.33;101702.97;4953211;29;20059;-75
2021/04/10 06:40:00;;;;;;;5.50;2.90;;;;;;;11.86;34.29;101704.06;4954459;28;20082;-82
2021/04/10 06:42:26;;;;;;;16.00;4.50;;;;;;;11.97;34.25;101710.22;4954091;28;20510;-75
2021/04/10 06:44:54;;;;;;;28.55;5.38;;;;;;;12.00;34.38;101712.34;4954429;28;20086;-74
2021/04/10 06:47:22;;;;;;;18.48;4.90;;;;;;;12.14;34.32;101707.72;4954466;28;20027;-74
2021/04/10 06:49:52;;;;;;;20.65;4.32;;;;;;;12.19;34.27;101704.91;4954285;28;20027;-82
2021/04/10 06:52:17;;;;;;;;;;;;;;;11.86;35.19;101712.28;4954824;28;20525;-75
2021/04/10 06:54:46;;;;;;;8.13;3.30;;;;;;;11.85;35.05;101705.19;4954380;28;20017;-75
2021/04/10 06:57:21;;;;;;;23.13;5.82;;;;;;;11.80;35.38;101706.09;4954332;28;20102;-74
2021/04/10 07:00:01;;;;;;;36.00;10.07;;;;;;;11.71;35.79;101705.09;4954230;28;20039;-75
2021/04/10 07:02:27;;;;;;;;;;;;;;;11.76;36.00;101701.47;4954815;28;20448;-78
2021/04/10 07:04:56;;;;;;;18.40;5.65;;;;;;;11.91;35.69;101706.72;4954326;28;20265;-74
2021/04/10 07:07:23;;;;;;;6.30;3.37;;;;;;;12.09;35.50;101705.06;4954321;28;20027;-74
2021/04/10 07:09:49;;;;;;;19.65;4.80;;;;;;;12.13;35.58;101708.84;4951143;28;20321;-83
2021/04/10 07:12:15;;;;;;;33.55;8.60;;;;;;;12.18;35.79;101709.59;4947092;28;20462;-82
2021/04/10 07:14:41;;;;;;;12.38;4.72;;;;;;;12.38;35.60;101710.31;4949096;28;20027;-79
2021/04/10 07:17:07;;;;;;;21.05;4.72;;;;;;;12.45;35.59;101714.28;4946549;28;20034;-73
2021/04/10 07:19:32;;;;;;;36.60;8.52;;;;;;;12.50;35.33;101711.47;4947713;28;20016;-74
2021/04/10 07:22:07;;;;;;;11.07;3.88;;;;;;;12.74;35.30;101714.03;4947030;28;20451;-74
2021/04/10 07:24:48;;;;;;;7.22;3.28;;;;;;;12.91;35.05;101710.69;4947672;29;20031;-77
2021/04/10 07:27:19;;;;;;;6.88;3.33;;;;;;;13.06;35.12;101702.13;4946404;29;20107;-74
2021/04/10 07:29:47;;;;;;;38.83;10.40;;;;;;;13.17;35.00;101710.97;4946547;28;20048;-74
2021/04/10 07:32:33;;;;;;;6.70;3.25;;;;;;;13.12;35.29;101711.06;4946772;28;20078;-81
2021/04/10 07:35:02;;;;;;;16.27;5.15;;;;;;;13.33;35.00;101708.75;4948651;29;20054;-76
2021/04/10 07:37:40;;;;;;;28.33;8.33;;;;;;;13.46;34.84;101716.16;4946053;29;20027;-78
2021/04/10 07:40:18;;;;;;;14.57;4.38;;;;;;;13.66;34.62;101708.56;4948219;28;20676;-75
2021/04/10 07:42:46;;;;;;;9.85;3.95;;;;;;;13.83;34.42;101705.97;4947791;29;20059;-82
2021/04/10 07:45:21;;;;;;;10.50;5.90;;;;;;;13.77;34.57;101716.25;4957503;28;20082;-75
2021/04/10 07:47:46;;;;;;;6.85;2.72;;;;;;;13.90;34.28;101709.06;4957357;28;20029;-80
2021/04/10 07:50:23;;;;;;;12.20;3.85;;;;;;;14.00;34.38;101714.34;4957406;29;20027;-76
2021/04/10 07:52:50;;;;;;;6.82;3.35;;;;;;;14.29;33.86;101719.38;4951543;29;20394;-75
2021/04/10 07:55:38;;;;;;;9.38;2.47;;;;;;;14.14;33.97;101714.28;4948263;29;20035;-78
2021/04/10 07:58:23;;;;;;;12.45;3.35;;;;;;;14.23;33.82;101723.38;4950575;28;20486;-75
2021/04/10 08:00:51;;;;;;;13.40;4.07;;;;;;;13.99;34.54;101717.41;4947089;29;20044;-76
2021/04/10 08:03:34;;;;;;;7.30;2.22;;;;;;;14.34;33.88;101718.44;4945682;28;20057;-76
2021/04/10 08:06:06;;;;;;;6.30;2.08;;;;;;;14.43;33.69;101711.03;4945612;28;20447;-76
2021/04/10 08:08:54;;;;;;;8.15;2.60;;;;;;;14.24;33.88;101714.00;4947972;29;20458;-75
2021/04/10 08:11:37;;;;;;;9.15;2.22;;;;;;;14.54;33.48;101712.44;4947968;29;20023;-75
2021/04/10 08:14:11;;;;;;;4.68;1.42;;;;;;;14.52;33.63;101714.69;4946367;29;20455;-78
2021/04/10 08:16:48;;;;;;;16.80;4.50;;;;;;;14.49;33.80;101712.56;4954302;28;20023;-77
2021/04/10 08:19:15;;;;;;;5.43;1.70;;;;;;;14.53;33.58;101710.00;4956980;28;20509;-77
2021/04/10 08:21:49;;;;;;;8.45;2.92;;;;;;;14.50;33.45;101705.94;4956346;28;20027;-73
2021/04/10 08:24:39;;;;;;;7.28;1.85;;;;;;;15.02;32.98;101706.13;4956231;28;20105;-76
2021/04/10 08:27:14;;;;;;;9.05;2.25;;;;;;;15.17;32.79;101713.94;4949162;28;20019;-81
2021/04/10 08:29:43;;;;;;;4.82;2.20;;;;;;;15.19;32.69;101706.19;4947690;29;20508;-81
2021/04/10 08:32:10;;;;;;;4.88;1.70;;;;;;;14.87;32.97;101712.06;4935811;29;20038;-81
2021/04/10 08:34:36;;;;;;;7.10;4.30;;;;;;;15.16;32.83;101704.06;4949878;28;20086;-77
2021/04/10 08:37:08;;;;;;;6.13;2.17;;;;;;;15.40;32.34;101706.38;4937862;29;20046;-77
2021/04/10 08:39:36;;;;;;;7.05;2.30;;;;;;;15.06;33.08;101711.81;4937306;29;20102;-79
2021/04/10 08:42:03;;;;;;;12.82;2.50;;;;;;;15.32;32.72;101709.94;4937381;28;20038;-76
2021/04/10 08:44:33;;;;;;;8.23;2.03;;;;;;;15.27;32.78;101702.66;4920266;29;20063;-79
2021/04/10 08:46:59;;;;;;;;;;;;;;;15.17;32.78;101713.94;4937639;29;20060;-73
2021/04/10 08:49:34;;;;;;;5.75;2.55;;;;;;;14.85;33.08;101704.16;4937028;28;19914;-83
2021/04/10 08:52:06;;;;;;;5.68;1.88;;;;;;;15.47;32.55;101708.66;4937938;29;20039;-88
2021/04/10 08:54:33;;;;;;;5.72;2.03;;;;;;;15.37;32.15;101707.03;4938309;29;20500;-88
2021/04/10 08:57:05;;;;;;;58.38;42.50;;;;;;;15.49;32.19;101709.97;4941612;28;20478;-82
2021/04/10 08:59:44;;;;;;;10.07;3.47;;;;;;;15.81;31.67;101705.16;4944069;29;20524;-81
2021/04/10 09:02:11;;;;;;;8.57;1.60;;;;;;;15.85;31.57;101703.34;4946184;28;20051;-77
2021/04/10 09:05:06;;;;;;;5.13;1.73;;;;;;;15.80;31.76;101698.81;4943989;28;20035;-77
2021/04/10 09:07:43;;;;;;;6.82;1.60;;;;;;;16.10;31.63;101698.97;4943792;29;20032;-79
2021/04/10 09:10:09;;;;;;;7.75;1.63;;;;;;;16.13;31.52;101700.25;4943343;29;20043;-76
2021/04/10 09:12:35;;;;;;;3.03;1.63;;;;;;;15.70;31.48;101709.34;4944130;29;20490;-82
2021/04/10 09:15:07;;;;;;;10.45;2.25;;;;;;;16.08;31.17;101704.78;4946967;28;20035;-77
2021/04/10 09:17:56;;;;;;;5.80;2.20;;;;;;;15.90;31.35;101705.13;4942574;29;20078;-86
2021/04/10 09:20:43;;;;;;;4.90;1.40;;;;;;;15.87;31.33;101701.09;4947170;29;20040;-82
2021/04/10 09:23:26;;;;;;;4.90;1.60;;;;;;;16.08;31.05;101707.53;4943758;29;20027;-77
2021/04/10 09:26:11;;;;;;;7.45;1.83;;;;;;;16.51;30.87;101701.13;4942235;29;20394;-77
2021/04/10 09:28:54;;;;;;;3.53;1.00;;;;;;;16.36;30.52;101696.13;4945816;29;20131;-81
2021/04/10 09:31:48;;;;;;;5.50;1.33;;;;;;;16.38;29.94;101707.63;4946494;29;20039;-77
2021/04/10 09:34:46;;;;;;;3.92;1.40;;;;;;;16.40;30.05;101701.78;4943298;28;20118;-76
2021/04/10 09:37:20;;;;;;;3.30;1.17;;;;;;;16.30;30.04;101700.19;4943458;29;20024;-76
2021/04/10 09:39:57;;;;;;;14.35;2.85;;;;;;;16.64;29.63;101704.81;4944537;29;20478;-76
2021/04/10 09:45:08;;;;;;;10.65;3.40;;;;;;;16.62;30.19;101701.56;4944553;29;20028;-76
2021/04/10 09:47:54;;;;;;;3.55;1.10;;;;;;;16.39;28.79;101698.22;4940605;29;20039;-81
2021/04/10 09:50:24;;;;;;;6.00;1.30;;;;;;;16.63;28.96;101694.91;4945744;29;20478;-83
2021/04/10 09:52:53;;;;;;;4.95;0.82;;;;;;;16.96;28.45;101697.88;4944528;28;20106;-77
2021/04/10 09:55:20;;;;;;;5.13;1.58;;;;;;;17.00;27.79;101698.81;4943501;28;20050;-76
2021/04/10 09:57:56;;;;;;;1.90;1.05;;;;;;;17.25;27.66;101694.28;4945109;28;20031;-75
2021/04/10 10:00:32;;;;;;;3.65;1.00;;;;;;;16.85;26.94;101693.84;4945303;29;20075;-75
2021/04/10 10:02:59;;;;;;;10.23;1.33;;;;;;;17.32;27.33;101678.00;4945402;29;20035;-75
2021/04/10 10:05:30;;;;;;;4.90;0.95;;;;;;;16.72;28.15;101689.38;4945538;29;20023;-84
2021/04/10 10:08:03;;;;;;;3.53;1.20;;;;;;;17.03;27.89;101692.63;4945272;29;20374;-81
2021/04/10 10:10:37;;;;;;;10.45;1.60;;;;;;;17.19;26.50;101688.16;4950779;29;20030;-80
2021/04/10 10:13:05;;;;;;;8.40;1.95;;;;;;;17.40;27.30;101684.59;4946103;29;20055;-81
2021/04/10 10:15:31;;;;;;;7.88;2.28;;;;;;;17.74;27.17;101684.34;4951882;29;20059;-77
2021/04/10 10:17:58;;;;;;;5.45;1.40;;;;;;;17.68;27.68;101682.91;4954945;28;20023;-77
2021/04/10 10:20:25;;;;;;;2.30;1.23;;;;;;;17.54;26.82;101685.16;4954335;28;20032;-78
2021/04/10 10:22:51;;;;;;;3.72;1.98;;;;;;;17.42;27.15;101679.53;4955245;28;20023;-72
2021/04/10 10:25:18;;;;;;;7.20;1.20;;;;;;;17.70;26.75;101679.81;4954853;28;20059;-78
2021/04/10 10:27:46;;;;;;;4.53;1.95;;;;;;;17.75;26.82;101683.19;4953556;29;20102;-75
2021/04/10 10:30:20;;;;;;;3.80;1.17;;;;;;;17.43;27.53;101686.69;4954742;28;20035;-72
2021/04/10 10:32:50;;;;;;;2.38;1.38;;;;;;;17.45;26.67;101690.72;4954924;28;20102;-76
2021/04/10 10:35:18;;;;;;;2.85;0.80;;;;;;;17.36;26.04;101689.16;4954771;28;20030;-73
2021/04/10 10:37:50;;;;;;;4.00;1.02;;;;;;;17.55;26.97;101685.97;4954644;28;20385;-75
2021/04/10 10:40:25;;;;;;;6.70;2.10;;;;;;;17.51;26.97;101682.22;4954619;28;20106;-74
2021/04/10 10:43:18;;;;;;;7.45;1.17;;;;;;;17.29;26.17;101680.59;4953312;29;20043;-73
2021/04/10 10:45:49;;;;;;;4.13;1.08;;;;;;;17.50;26.57;101683.38;4952728;28;20491;-79
2021/04/10 10:48:16;;;;;;;3.63;0.82;;;;;;;17.30;25.66;101679.47;4953276;29;20122;-84
2021/04/10 10:50:41;;;;;;;3.63;1.15;;;;;;;17.18;27.24;101686.53;4953898;29;20170;-85
2021/04/10 10:53:18;;;;;;;4.25;1.38;;;;;;;17.75;26.47;101682.38;4953717;29;20512;-85
2021/04/10 10:56:09;;;;;;;4.47;1.35;;;;;;;17.22;27.83;101680.31;4953564;29;20040;-86
2021/04/10 10:59:10;;;;;;;5.03;1.48;;;;;;;17.34;28.08;101689.50;4953609;29;20039;-86
2021/04/10 11:01:38;;;;;;;1.60;0.93;;;;;;;17.01;27.85;101683.88;4917633;29;20123;-84
2021/04/10 11:04:24;;;;;;;3.42;0.77;;;;;;;16.79;27.39;101686.91;4945991;29;20031;-83
2021/04/10 11:06:55;;;;;;;9.00;1.60;;;;;;;17.21;27.46;101676.75;4954726;28;20034;-84
2021/04/10 11:09:26;;;;;;;4.82;1.52;;;;;;;17.23;28.38;101695.75;4953574;29;20510;-84
2021/04/10 11:11:59;;;;;;;2.45;1.00;;;;;;;16.87;27.96;101686.06;4953751;29;20035;-84
2021/04/10 11:14:28;;;;;;;6.93;1.58;;;;;;;17.24;27.75;101689.09;4954657;28;20027;-87
2021/04/10 11:16:56;;;;;;;5.82;2.08;;;;;;;17.69;27.67;101684.53;4953388;29;20118;-84
2021/04/10 11:19:30;;;;;;;4.03;1.33;;;;;;;17.78;27.86;101691.97;4953287;29;20034;-84
2021/04/10 11:21:58;;;;;;;5.82;1.58;;;;;;;17.17;28.17;101693.19;4953375;29;20023;-86
2021/04/10 11:24:42;;;;;;;3.72;1.40;;;;;;;17.63;28.37;101690.59;4953487;29;20086;-85
2021/04/10 11:27:21;;;;;;;5.45;1.42;;;;;;;17.64;28.00;101683.91;4953497;29;20501;-81
2021/04/10 11:30:11;;;;;;;2.43;1.17;;;;;;;17.80;27.76;101689.66;4953384;29;20035;-80
2021/04/10 11:32:41;;;;;;;12.80;2.55;;;;;;;18.18;27.58;101687.50;4954332;28;20274;-87
2021/04/10 11:35:21;;;;;;;3.38;1.50;;;;;;;17.35;28.15;101682.84;4955297;28;20470;-76
2021/04/10 11:37:48;;;;;;;;;;;;;;;17.64;28.54;101686.69;4922363;29;20078;-76
2021/04/10 11:40:17;;;;;;;3.67;1.40;;;;;;;17.32;28.50;101689.03;4952788;29;19911;-73